createdAt,value
2022-12-06T00:01:49.285Z,22.63
2022-12-06T00:04:16.247Z,23.73
2022-12-06T00:06:48.129Z,23.97
2022-12-06T00:12:03.592Z,20.97
2022-12-06T00:14:30.159Z,22.23
2022-12-06T00:16:56.887Z,21.07
2022-12-06T00:19:23.609Z,22.83
2022-12-06T00:24:34.548Z,22.67
2022-12-06T00:27:01.059Z,23.27
2022-12-06T00:29:27.624Z,23.63
2022-12-06T00:31:54.246Z,24.03
2022-12-06T00:37:05.254Z,22.40
2022-12-06T00:42:15.550Z,22.03
2022-12-06T00:44:42.057Z,21.63
2022-12-06T00:47:08.596Z,23.30
2022-12-06T00:49:35.158Z,21.37
2022-12-06T00:52:01.843Z,20.80
2022-12-06T00:54:28.391Z,21.37
2022-12-06T00:56:54.981Z,22.43
2022-12-06T00:59:21.601Z,22.13
2022-12-06T01:01:48.221Z,22.77
2022-12-06T01:04:14.770Z,21.73
2022-12-06T01:06:41.416Z,22.60
2022-12-06T01:09:08.563Z,22.53
2022-12-06T01:11:35.151Z,24.43
2022-12-06T01:16:46.140Z,22.43
2022-12-06T01:21:57.340Z,22.00
2022-12-06T01:24:23.841Z,22.23
2022-12-06T01:26:50.663Z,21.60
2022-12-06T01:29:17.540Z,22.40
2022-12-06T01:34:28.512Z,21.30
2022-12-06T01:36:55.019Z,23.47
2022-12-06T01:39:21.855Z,22.57
2022-12-06T01:41:48.338Z,22.43
2022-12-06T01:44:33.473Z,21.20
2022-12-06T01:47:00.598Z,21.80
2022-12-06T01:49:28.026Z,21.53
2022-12-06T01:54:40.461Z,23.07
2022-12-06T01:57:07.320Z,20.67
2022-12-06T01:59:33.896Z,22.30
2022-12-06T02:02:00.577Z,21.67
2022-12-06T02:04:27.272Z,22.27
2022-12-06T02:06:53.893Z,21.80
2022-12-06T02:09:20.671Z,21.37
2022-12-06T02:11:47.605Z,21.93
2022-12-06T02:14:15.315Z,20.90
2022-12-06T02:19:38.869Z,20.93
2022-12-06T02:22:07.932Z,22.83
2022-12-06T02:24:49.774Z,20.50
2022-12-06T02:30:11.100Z,20.43
2022-12-06T02:32:55.047Z,20.00
2022-12-06T02:35:42.255Z,22.00
2022-12-06T02:38:13.037Z,20.67
2022-12-06T02:40:41.989Z,22.23
2022-12-06T02:43:10.025Z,22.03
2022-12-06T02:45:38.706Z,21.67
2022-12-06T02:48:05.553Z,22.40
2022-12-06T02:50:33.180Z,21.83
2022-12-06T02:53:00.034Z,23.00
2022-12-06T02:55:26.638Z,21.57
2022-12-06T02:57:53.395Z,22.03
2022-12-06T03:00:29.617Z,21.13
2022-12-06T03:06:04.475Z,20.93
2022-12-06T03:08:40.141Z,21.07
2022-12-06T03:11:06.716Z,19.80
2022-12-06T03:13:39.219Z,20.13
2022-12-06T03:16:11.732Z,19.97
2022-12-06T03:18:47.534Z,20.27
2022-12-06T03:21:16.209Z,19.77
2022-12-06T03:23:43.630Z,21.60
2022-12-06T03:26:10.836Z,19.97
2022-12-06T03:28:37.732Z,20.20
2022-12-06T03:31:11.760Z,19.80
2022-12-06T03:33:47.028Z,21.10
2022-12-06T03:38:59.109Z,20.17
2022-12-06T03:44:17.265Z,20.27
2022-12-06T03:49:40.574Z,20.97
2022-12-06T03:52:07.273Z,20.73
2022-12-06T03:54:33.766Z,21.53
2022-12-06T03:57:00.511Z,21.43
2022-12-06T04:02:11.219Z,20.53
2022-12-06T04:04:37.834Z,19.37
2022-12-06T04:07:04.485Z,19.87
2022-12-06T04:09:49.659Z,20.03
2022-12-06T04:12:35.041Z,20.17
2022-12-06T04:15:01.831Z,19.90
2022-12-06T04:17:47.253Z,19.73
2022-12-06T04:20:13.932Z,20.67
2022-12-06T04:22:59.763Z,20.23
2022-12-06T04:25:26.462Z,19.40
2022-12-06T04:28:11.720Z,20.67
2022-12-06T04:30:57.074Z,19.60
2022-12-06T04:33:42.521Z,19.93
2022-12-06T04:36:28.701Z,19.53
2022-12-06T04:38:55.318Z,20.80
2022-12-06T04:41:40.574Z,20.33
2022-12-06T04:44:07.219Z,20.87
2022-12-06T04:46:33.814Z,20.73
2022-12-06T04:49:00.477Z,20.53
2022-12-06T04:51:27.421Z,20.83
2022-12-06T04:53:55.607Z,20.80
2022-12-06T04:56:22.286Z,22.67
2022-12-06T04:58:49.082Z,20.70
2022-12-06T05:01:17.304Z,22.27
2022-12-06T05:03:44.615Z,21.43
2022-12-06T05:06:11.428Z,21.57
2022-12-06T05:08:38.060Z,21.00
2022-12-06T05:11:04.839Z,22.23
2022-12-06T05:13:31.444Z,20.33
2022-12-06T05:15:59.001Z,20.90
2022-12-06T05:21:13.104Z,20.70
2022-12-06T05:23:39.774Z,21.37
2022-12-06T05:26:07.601Z,21.70
2022-12-06T05:28:34.311Z,22.23
2022-12-06T05:31:01.086Z,22.70
2022-12-06T05:33:27.886Z,20.97
2022-12-06T05:35:54.464Z,21.47
2022-12-06T05:38:21.360Z,22.00
2022-12-06T05:40:47.968Z,21.47
2022-12-06T05:43:14.666Z,20.87
2022-12-06T05:45:41.894Z,21.63
2022-12-06T05:48:08.498Z,21.23
2022-12-06T05:50:35.431Z,20.20
2022-12-06T05:55:46.299Z,20.97
2022-12-06T05:58:12.916Z,21.10
2022-12-06T06:00:39.582Z,21.57
2022-12-06T06:03:06.311Z,21.93
2022-12-06T06:05:33.236Z,20.83
2022-12-06T06:07:59.915Z,21.10
2022-12-06T06:10:26.725Z,19.93
2022-12-06T06:12:53.437Z,19.40
2022-12-06T06:15:20.059Z,18.50
2022-12-06T06:17:46.660Z,20.10
2022-12-06T06:20:14.018Z,20.63
2022-12-06T06:22:40.757Z,20.57
2022-12-06T06:25:07.651Z,19.60
2022-12-06T06:30:19.128Z,20.40
2022-12-06T06:32:45.949Z,19.73
2022-12-06T06:35:12.608Z,21.83
2022-12-06T06:37:39.137Z,20.87
2022-12-06T06:42:50.263Z,21.07
2022-12-06T06:45:17.161Z,20.83
2022-12-06T06:47:43.900Z,22.53
2022-12-06T06:50:11.268Z,21.90
2022-12-06T06:52:38.146Z,23.47
2022-12-06T06:55:05.239Z,24.77
2022-12-06T06:57:31.884Z,23.63
2022-12-06T06:59:58.775Z,24.17
2022-12-06T07:02:25.729Z,23.93
2022-12-06T07:04:52.816Z,23.07
2022-12-06T07:07:21.184Z,23.60
2022-12-06T07:09:48.003Z,24.87
2022-12-06T07:12:15.340Z,23.90
2022-12-06T07:14:41.975Z,24.87
2022-12-06T07:17:08.620Z,24.57
2022-12-06T07:19:35.303Z,24.30
2022-12-06T07:22:01.955Z,24.20
2022-12-06T07:24:28.598Z,22.40
2022-12-06T07:26:57.108Z,25.13
2022-12-06T07:29:23.946Z,24.53
2022-12-06T07:31:50.563Z,23.13
2022-12-06T07:34:17.228Z,25.53
2022-12-06T07:36:43.934Z,26.27
2022-12-06T07:39:14.820Z,26.17
2022-12-06T07:42:01.113Z,25.90
2022-12-06T07:44:59.955Z,25.47
2022-12-06T07:47:38.715Z,24.50
2022-12-06T07:50:05.968Z,23.80
2022-12-06T07:52:33.339Z,24.70
2022-12-06T07:55:00.413Z,24.43
2022-12-06T07:57:27.166Z,25.70
2022-12-06T07:59:53.816Z,27.03
2022-12-06T08:02:21.571Z,26.13
2022-12-06T08:04:48.502Z,26.03
2022-12-06T08:07:15.694Z,27.43
2022-12-06T08:12:27.339Z,27.97
2022-12-06T08:14:59.355Z,54.17
2022-12-06T08:17:26.962Z,31.23
2022-12-06T08:19:53.704Z,24.97
2022-12-06T08:22:20.382Z,27.57
2022-12-06T08:24:46.969Z,27.13
2022-12-06T08:27:14.074Z,27.87
2022-12-06T08:29:40.872Z,27.23
2022-12-06T08:32:07.587Z,27.67
2022-12-06T08:34:34.215Z,27.23
2022-12-06T08:37:03.583Z,28.07
2022-12-06T08:39:30.431Z,27.80
2022-12-06T08:41:58.545Z,28.50
2022-12-06T08:44:26.223Z,28.40
2022-12-06T08:46:54.108Z,28.70
2022-12-06T08:49:20.970Z,28.80
2022-12-06T08:51:48.718Z,29.83
2022-12-06T08:54:16.034Z,28.10
2022-12-06T08:56:42.669Z,26.30
2022-12-06T08:59:09.290Z,25.87
2022-12-06T09:01:38.875Z,26.90
2022-12-06T09:04:06.368Z,26.67
2022-12-06T09:06:33.501Z,27.93
2022-12-06T09:09:00.722Z,26.77
2022-12-06T09:11:27.423Z,29.67
2022-12-06T09:13:54.130Z,28.10
2022-12-06T09:16:21.829Z,28.47
2022-12-06T09:18:49.097Z,32.37
2022-12-06T09:21:16.523Z,35.20
2022-12-06T09:23:43.304Z,37.00
2022-12-06T09:26:10.289Z,41.57
2022-12-06T09:28:37.613Z,39.90
2022-12-06T09:31:04.451Z,35.73
2022-12-06T09:33:31.559Z,34.77
2022-12-06T09:36:00.206Z,33.73
2022-12-06T09:38:28.220Z,35.27
2022-12-06T09:40:58.089Z,33.63
2022-12-06T09:43:44.053Z,33.53
2022-12-06T09:46:19.818Z,33.23
2022-12-06T09:48:51.163Z,36.03
2022-12-06T09:51:38.101Z,37.40
2022-12-06T09:54:06.482Z,37.20
2022-12-06T09:56:39.614Z,37.70
2022-12-06T09:59:24.864Z,38.13
2022-12-06T10:02:06.900Z,39.50
2022-12-06T10:04:39.900Z,41.90
2022-12-06T10:07:12.268Z,37.87
2022-12-06T10:09:55.991Z,37.07
2022-12-06T10:12:43.431Z,36.67
2022-12-06T10:15:28.780Z,36.93
2022-12-06T10:17:55.524Z,38.20
2022-12-06T10:20:41.022Z,38.37
2022-12-06T10:23:10.598Z,37.10
2022-12-06T10:25:43.078Z,35.17
2022-12-06T10:28:09.863Z,37.30
2022-12-06T10:30:37.151Z,35.97
2022-12-06T10:33:05.833Z,34.43
2022-12-06T10:35:35.476Z,34.30
2022-12-06T10:38:02.259Z,36.10
2022-12-06T10:40:32.064Z,35.10
2022-12-06T10:43:06.462Z,36.77
2022-12-06T10:45:57.013Z,38.30
2022-12-06T10:48:27.352Z,36.83
2022-12-06T10:51:13.080Z,40.23
2022-12-06T10:53:41.816Z,38.17
2022-12-06T10:56:14.813Z,37.10
2022-12-06T10:58:43.942Z,40.43
2022-12-06T11:01:16.311Z,37.50
2022-12-06T11:03:44.879Z,37.30
2022-12-06T11:06:11.710Z,39.17
2022-12-06T11:08:39.993Z,36.40
2022-12-06T11:11:10.223Z,36.00
2022-12-06T11:13:49.110Z,35.47
2022-12-06T11:16:23.557Z,36.40
2022-12-06T11:18:50.436Z,39.90
2022-12-06T11:21:35.754Z,38.40
2022-12-06T11:24:09.017Z,38.00
2022-12-06T11:26:40.441Z,36.30
2022-12-06T11:29:11.036Z,37.17
2022-12-06T11:31:45.673Z,37.03
2022-12-06T11:34:32.983Z,36.23
2022-12-06T11:37:00.789Z,34.60
2022-12-06T11:39:28.036Z,34.40
2022-12-06T11:41:55.649Z,33.40
2022-12-06T11:44:25.885Z,32.20
2022-12-06T11:47:01.913Z,35.10
2022-12-06T11:49:31.328Z,35.30
2022-12-06T11:51:58.294Z,33.93
2022-12-06T11:54:28.569Z,37.07
2022-12-06T11:56:57.291Z,36.83
2022-12-06T11:59:27.079Z,34.87
2022-12-06T12:04:42.764Z,33.13
2022-12-06T12:07:09.482Z,33.27
2022-12-06T12:09:46.724Z,33.63
2022-12-06T12:12:16.411Z,34.87
2022-12-06T12:14:49.595Z,35.50
2022-12-06T12:17:21.589Z,33.93
2022-12-06T12:19:52.304Z,33.40
2022-12-06T12:22:28.239Z,33.90
2022-12-06T12:25:17.773Z,32.90
2022-12-06T12:27:45.981Z,34.87
2022-12-06T12:30:18.935Z,32.73
2022-12-06T12:32:46.022Z,34.83
2022-12-06T12:35:21.809Z,34.37
2022-12-06T12:37:48.888Z,33.00
2022-12-06T12:40:22.007Z,33.60
2022-12-06T12:42:48.916Z,32.10
2022-12-06T12:45:18.055Z,30.83
2022-12-06T12:48:05.132Z,31.20
2022-12-06T12:50:32.115Z,30.37
2022-12-06T12:52:59.549Z,29.27
2022-12-06T12:55:27.428Z,30.40
2022-12-06T12:57:55.471Z,28.83
2022-12-06T13:00:25.591Z,28.50
2022-12-06T13:02:56.510Z,29.33
2022-12-06T13:05:33.199Z,28.03
2022-12-06T13:08:19.908Z,27.50
2022-12-06T13:10:47.620Z,25.73
2022-12-06T13:13:18.992Z,27.67
2022-12-06T13:15:47.557Z,27.47
2022-12-06T13:18:21.520Z,26.80
2022-12-06T13:20:49.919Z,29.37
2022-12-06T13:23:19.088Z,28.57
2022-12-06T13:25:51.910Z,29.20
2022-12-06T13:28:22.903Z,29.10
2022-12-06T13:33:38.994Z,27.23
2022-12-06T13:36:07.037Z,26.97
2022-12-06T13:38:37.292Z,29.70
2022-12-06T13:41:04.765Z,29.37
2022-12-06T13:43:35.094Z,29.87
2022-12-06T13:46:09.522Z,28.83
2022-12-06T13:51:35.787Z,28.40
2022-12-06T13:56:52.010Z,27.20
2022-12-06T13:59:21.687Z,28.30
2022-12-06T14:01:52.352Z,28.43
2022-12-06T14:07:02.096Z,27.17
2022-12-06T14:09:36.811Z,27.93
2022-12-06T14:12:10.613Z,31.37
2022-12-06T14:14:37.447Z,29.43
2022-12-06T14:17:06.049Z,30.93
2022-12-06T14:19:39.317Z,28.80
2022-12-06T14:22:20.000Z,29.63
2022-12-06T14:27:46.901Z,28.97
2022-12-06T14:32:57.905Z,31.13
2022-12-06T14:35:24.591Z,29.63
2022-12-06T14:37:52.578Z,32.20
2022-12-06T14:43:15.310Z,30.27
2022-12-06T14:48:26.198Z,29.30
2022-12-06T14:50:58.824Z,29.07
2022-12-06T14:53:29.519Z,29.60
2022-12-06T14:55:59.837Z,28.53
2022-12-06T14:58:27.564Z,27.37
2022-12-06T15:00:54.462Z,28.17
2022-12-06T15:03:23.253Z,27.77
2022-12-06T15:05:52.244Z,27.97
2022-12-06T15:08:28.479Z,28.73
2022-12-06T15:10:59.778Z,26.97
2022-12-06T15:13:26.390Z,29.23
2022-12-06T15:16:05.320Z,27.53
2022-12-06T15:18:33.137Z,28.73
2022-12-06T15:20:59.706Z,28.43
2022-12-06T15:23:29.174Z,28.13
2022-12-06T15:25:55.932Z,29.57
2022-12-06T15:28:22.522Z,27.77
2022-12-06T15:30:49.501Z,28.30
2022-12-06T15:33:20.148Z,27.43
2022-12-06T15:35:46.955Z,27.30
2022-12-06T15:38:13.557Z,26.33
2022-12-06T15:40:49.276Z,27.33
2022-12-06T15:43:22.488Z,26.87
2022-12-06T15:45:49.144Z,26.50
2022-12-06T15:48:15.669Z,28.97
2022-12-06T15:50:42.308Z,29.10
2022-12-06T15:53:12.499Z,29.70
2022-12-06T15:55:39.171Z,29.87
2022-12-06T15:58:05.743Z,26.57
2022-12-06T16:00:32.352Z,24.00
2022-12-06T16:02:59.933Z,26.73
2022-12-06T16:08:10.849Z,28.50
2022-12-06T16:11:10.209Z,29.97
2022-12-06T16:13:24.184Z,41.00
2022-12-06T16:18:35.710Z,61.27
2022-12-06T16:21:03.891Z,63.17
2022-12-06T16:24:12.343Z,91.00
2022-12-06T16:29:25.144Z,72.63
2022-12-06T16:31:52.885Z,83.83
2022-12-06T16:34:19.761Z,50.23
2022-12-06T16:37:03.916Z,48.87
2022-12-06T16:39:30.928Z,49.53
2022-12-06T16:41:57.527Z,56.80
2022-12-06T16:44:24.181Z,51.30
2022-12-06T16:46:51.752Z,47.40
2022-12-06T16:49:45.293Z,60.73
2022-12-06T16:52:06.745Z,59.90
2022-12-06T16:54:34.338Z,63.37
2022-12-06T16:57:00.982Z,49.77
2022-12-06T16:59:27.537Z,41.13
2022-12-06T17:01:54.710Z,33.60
2022-12-06T17:04:21.343Z,30.97
2022-12-06T17:09:32.405Z,30.17
2022-12-06T17:14:56.802Z,32.53
2022-12-06T17:20:10.485Z,34.07
2022-12-06T17:25:21.705Z,37.97
2022-12-06T17:30:33.880Z,38.57
2022-12-06T17:33:03.363Z,38.87
2022-12-06T17:35:32.343Z,37.00
2022-12-06T17:38:00.537Z,34.67
2022-12-06T17:40:27.318Z,32.83
2022-12-06T17:42:59.970Z,33.77
2022-12-06T17:45:26.682Z,32.67
2022-12-06T17:47:53.288Z,34.30
2022-12-06T17:50:20.347Z,33.40
2022-12-06T17:52:47.884Z,31.50
2022-12-06T17:55:15.085Z,32.03
2022-12-06T17:57:41.832Z,31.50
2022-12-06T18:00:08.649Z,32.07
2022-12-06T18:02:35.437Z,33.63
2022-12-06T18:05:02.443Z,33.77
2022-12-06T18:07:29.278Z,34.33
2022-12-06T18:09:55.992Z,35.00
2022-12-06T18:12:22.679Z,37.40
2022-12-06T18:14:49.376Z,35.67
2022-12-06T18:17:16.066Z,32.70
2022-12-06T18:19:46.898Z,34.33
2022-12-06T18:22:14.669Z,35.70
2022-12-06T18:24:41.409Z,32.03
2022-12-06T18:27:08.236Z,33.73
2022-12-06T18:29:35.299Z,31.67
2022-12-06T18:32:02.203Z,30.50
2022-12-06T18:34:29.220Z,31.50
2022-12-06T18:36:55.969Z,33.10
2022-12-06T18:39:25.497Z,31.10
2022-12-06T18:41:52.644Z,30.70
2022-12-06T18:44:19.330Z,32.83
2022-12-06T18:46:46.579Z,33.77
2022-12-06T18:49:14.711Z,29.13
2022-12-06T18:54:28.375Z,28.83
2022-12-06T18:56:56.696Z,30.60
2022-12-06T18:59:27.633Z,30.93
2022-12-06T19:01:54.722Z,29.57
2022-12-06T19:07:06.795Z,28.70
2022-12-06T19:09:33.353Z,29.97
2022-12-06T19:11:59.974Z,30.07
2022-12-06T19:14:26.946Z,29.87
2022-12-06T19:16:55.027Z,30.10
2022-12-06T19:19:22.557Z,30.70
2022-12-06T19:21:52.257Z,31.27
2022-12-06T19:24:21.342Z,31.60
2022-12-06T19:26:49.062Z,30.47
2022-12-06T19:29:15.707Z,28.77
2022-12-06T19:31:42.567Z,30.27
2022-12-06T19:34:16.446Z,29.83
2022-12-06T19:36:43.789Z,25.93
2022-12-06T19:39:11.469Z,26.83
2022-12-06T19:41:58.117Z,26.97
2022-12-06T19:44:25.607Z,24.93
2022-12-06T19:46:52.569Z,25.37
2022-12-06T19:49:20.984Z,27.40
2022-12-06T19:51:47.748Z,26.40
2022-12-06T19:54:17.640Z,26.90
2022-12-06T19:56:44.391Z,26.07
2022-12-06T19:59:12.335Z,26.00
2022-12-06T20:01:47.096Z,26.00
2022-12-06T20:04:17.643Z,24.23
2022-12-06T20:06:44.374Z,26.97
2022-12-06T20:09:11.118Z,25.90
2022-12-06T20:11:56.380Z,25.40
2022-12-06T20:14:23.521Z,26.00
2022-12-06T20:16:50.575Z,27.03
2022-12-06T20:19:17.589Z,26.97
2022-12-06T20:24:30.303Z,26.30
2022-12-06T20:26:58.938Z,26.57
2022-12-06T20:29:27.212Z,26.57
2022-12-06T20:31:54.812Z,25.93
2022-12-06T20:34:22.980Z,27.10
2022-12-06T20:36:49.836Z,28.23
2022-12-06T20:39:21.063Z,26.60
2022-12-06T20:44:34.356Z,24.33
2022-12-06T20:47:01.748Z,25.70
2022-12-06T20:49:29.229Z,25.37
2022-12-06T20:51:56.785Z,24.90
2022-12-06T20:54:24.444Z,24.27
2022-12-06T20:56:52.130Z,24.57
2022-12-06T20:59:22.311Z,23.47
2022-12-06T21:01:49.527Z,24.70
2022-12-06T21:04:17.017Z,23.67
2022-12-06T21:06:43.885Z,24.57
2022-12-06T21:09:10.760Z,24.97
2022-12-06T21:11:37.683Z,24.37
2022-12-06T21:14:05.613Z,24.70
2022-12-06T21:16:33.532Z,25.60
2022-12-06T21:19:01.102Z,23.80
2022-12-06T21:24:22.272Z,21.80
2022-12-06T21:26:50.377Z,21.43
2022-12-06T21:29:17.984Z,22.67
2022-12-06T21:31:44.598Z,23.50
2022-12-06T21:34:14.652Z,22.37
2022-12-06T21:36:41.750Z,22.67
2022-12-06T21:39:10.169Z,22.17
2022-12-06T21:41:37.917Z,21.00
2022-12-06T21:44:04.564Z,20.77
2022-12-06T21:46:31.734Z,21.50
2022-12-06T21:48:58.840Z,21.13
2022-12-06T21:51:26.470Z,21.77
2022-12-06T21:53:54.945Z,21.40
2022-12-06T21:56:22.354Z,20.13
2022-12-06T21:58:49.598Z,22.07
2022-12-06T22:01:17.710Z,21.17
2022-12-06T22:06:31.656Z,21.53
2022-12-06T22:08:59.133Z,21.17
2022-12-06T22:11:25.985Z,21.80
2022-12-06T22:13:52.809Z,19.87
2022-12-06T22:16:19.453Z,19.87
2022-12-06T22:18:46.534Z,19.67
2022-12-06T22:21:15.042Z,19.40
2022-12-06T22:23:41.610Z,18.80
2022-12-06T22:26:13.285Z,19.20
2022-12-06T22:28:39.849Z,18.40
2022-12-06T22:31:10.269Z,19.43
2022-12-06T22:33:36.917Z,18.67
2022-12-06T22:36:03.671Z,19.23
2022-12-06T22:38:32.822Z,19.40
2022-12-06T22:40:59.601Z,18.03
2022-12-06T22:43:27.292Z,17.17
2022-12-06T22:45:53.914Z,18.23
2022-12-06T22:48:20.660Z,17.03
2022-12-06T22:50:47.280Z,18.57
2022-12-06T22:53:14.234Z,18.87
2022-12-06T22:55:40.858Z,19.90
2022-12-06T22:58:07.462Z,18.53
2022-12-06T23:00:34.154Z,18.77
2022-12-06T23:03:00.751Z,17.30
2022-12-06T23:05:27.277Z,16.67
2022-12-06T23:10:38.208Z,17.30
2022-12-06T23:15:54.582Z,15.87
2022-12-06T23:18:21.233Z,15.67
2022-12-06T23:20:47.705Z,16.23
2022-12-06T23:23:16.649Z,15.20
2022-12-06T23:25:43.253Z,14.80
2022-12-06T23:28:09.833Z,17.00
2022-12-06T23:30:36.374Z,14.40
2022-12-06T23:33:02.998Z,14.03
2022-12-06T23:35:29.574Z,14.60
2022-12-06T23:37:56.162Z,13.73
2022-12-06T23:40:22.733Z,13.17
2022-12-06T23:42:50.404Z,13.70
2022-12-06T23:45:16.985Z,14.03
2022-12-06T23:47:44.432Z,12.67
2022-12-06T23:50:10.988Z,13.93
2022-12-06T23:52:37.525Z,14.23
2022-12-06T23:55:04.254Z,13.67
2022-12-06T23:57:31.110Z,14.13
2022-12-06T23:59:57.664Z,13.97
